createdAt,value
2017-11-22T00:01:20.432Z,99122.55
2017-11-22T00:03:46.865Z,99116.00
2017-11-22T00:06:13.299Z,99122.32
2017-11-22T00:08:39.735Z,99123.78
2017-11-22T00:11:06.170Z,99126.06
2017-11-22T00:13:32.611Z,99124.89
2017-11-22T00:15:59.037Z,99126.89
2017-11-22T00:18:26.198Z,99125.77
2017-11-22T00:20:52.634Z,99118.13
2017-11-22T00:23:19.063Z,99126.33
2017-11-22T00:25:45.496Z,99124.85
2017-11-22T00:28:11.825Z,99125.67
2017-11-22T00:30:38.261Z,99128.33
2017-11-22T00:33:04.702Z,99124.99
2017-11-22T00:35:31.848Z,99125.02
2017-11-22T00:37:58.396Z,99127.95
2017-11-22T00:40:24.817Z,99122.47
2017-11-22T00:42:51.262Z,99116.48
2017-11-22T00:45:17.686Z,99107.55
2017-11-22T00:47:44.123Z,99109.56
2017-11-22T00:50:10.556Z,99111.95
2017-11-22T00:52:37.788Z,99108.36
2017-11-22T00:55:04.238Z,99116.61
2017-11-22T00:57:30.679Z,99107.25
2017-11-22T00:59:57.184Z,99103.88
2017-11-22T01:02:23.651Z,99099.55
2017-11-22T01:04:50.078Z,99105.16
2017-11-22T01:07:16.630Z,99096.66
2017-11-22T01:09:43.671Z,99096.13
2017-11-22T01:12:10.109Z,99099.73
2017-11-22T01:14:36.549Z,99099.23
2017-11-22T01:17:02.996Z,99098.45
2017-11-22T01:19:29.410Z,99097.12
2017-11-22T01:21:55.844Z,99088.69
2017-11-22T01:24:22.359Z,99080.83
2017-11-22T01:26:49.443Z,99087.54
2017-11-22T01:29:15.874Z,99088.75
2017-11-22T01:31:42.299Z,99089.44
2017-11-22T01:34:08.736Z,99088.23
2017-11-22T01:36:35.177Z,99084.23
2017-11-22T01:39:01.604Z,99082.92
2017-11-22T01:41:28.038Z,99084.63
2017-11-22T01:43:55.173Z,99079.96
2017-11-22T01:46:21.615Z,99082.64
2017-11-22T01:48:48.067Z,99084.76
2017-11-22T01:51:14.474Z,99084.23
2017-11-22T01:53:41.199Z,99086.09
2017-11-22T01:56:07.669Z,99084.77
2017-11-22T01:58:34.110Z,99080.29
2017-11-22T02:01:01.266Z,99069.80
2017-11-22T02:03:27.690Z,99075.32
2017-11-22T02:05:54.133Z,99080.24
2017-11-22T02:08:20.567Z,99085.16
2017-11-22T02:10:46.994Z,99085.95
2017-11-22T02:13:13.429Z,99090.91
2017-11-22T02:15:39.863Z,99087.41
2017-11-22T02:18:07.024Z,99090.52
2017-11-22T02:20:33.459Z,99089.31
2017-11-22T02:22:59.897Z,99088.50
2017-11-22T02:25:26.327Z,99087.32
2017-11-22T02:27:52.754Z,99083.17
2017-11-22T02:30:19.128Z,99087.32
2017-11-22T02:32:45.520Z,99079.56
2017-11-22T02:35:12.671Z,99072.60
2017-11-22T02:37:39.114Z,99077.00
2017-11-22T02:40:05.541Z,99075.52
2017-11-22T02:42:31.978Z,99073.84
2017-11-22T02:44:58.411Z,99073.86
2017-11-22T02:47:24.844Z,99075.38
2017-11-22T02:49:51.280Z,99076.45
2017-11-22T02:52:18.407Z,99073.63
2017-11-22T02:54:44.875Z,99067.78
2017-11-22T02:57:11.308Z,99078.75
2017-11-22T02:59:37.735Z,99075.43
2017-11-22T03:02:04.177Z,99074.66
2017-11-22T03:04:30.603Z,99068.40
2017-11-22T03:06:57.040Z,99071.09
2017-11-22T03:09:24.295Z,99069.75
2017-11-22T03:11:50.733Z,99075.09
2017-11-22T03:14:17.128Z,99076.84
2017-11-22T03:16:43.595Z,99070.41
2017-11-22T03:19:10.038Z,99077.50
2017-11-22T03:21:36.465Z,99079.37
2017-11-22T03:24:03.011Z,99070.31
2017-11-22T03:26:30.153Z,99069.31
2017-11-22T03:28:56.594Z,99076.81
2017-11-22T03:31:23.029Z,99077.75
2017-11-22T03:33:49.458Z,99077.89
2017-11-22T03:36:15.789Z,99078.84
2017-11-22T03:38:42.226Z,99078.85
2017-11-22T03:41:08.662Z,99078.60
2017-11-22T03:43:35.818Z,99072.67
2017-11-22T03:46:02.245Z,99077.11
2017-11-22T03:48:28.688Z,99074.02
2017-11-22T03:50:55.113Z,99077.64
2017-11-22T03:53:21.553Z,99080.82
2017-11-22T03:55:47.960Z,99083.05
2017-11-22T03:58:14.419Z,99080.00
2017-11-22T04:00:41.569Z,99077.06
2017-11-22T04:03:08.106Z,99070.23
2017-11-22T04:05:34.549Z,99067.05
2017-11-22T04:08:00.985Z,99067.61
2017-11-22T04:10:27.414Z,99076.43
2017-11-22T04:12:53.792Z,99072.17
2017-11-22T04:15:20.139Z,99074.33
2017-11-22T04:17:47.411Z,99073.34
2017-11-22T04:20:13.847Z,99065.98
2017-11-22T04:22:40.299Z,99065.05
2017-11-22T04:25:06.744Z,99060.92
2017-11-22T04:27:33.103Z,99060.12
2017-11-22T04:29:59.468Z,99061.74
2017-11-22T04:32:25.943Z,99056.41
2017-11-22T04:34:53.090Z,99063.63
2017-11-22T04:37:19.533Z,99063.33
2017-11-22T04:39:45.957Z,99067.06
2017-11-22T04:42:12.392Z,99060.51
2017-11-22T04:44:38.834Z,99067.05
2017-11-22T04:47:05.261Z,99058.64
2017-11-22T04:49:31.707Z,99056.11
2017-11-22T04:51:58.952Z,99051.70
2017-11-22T04:54:25.386Z,99062.27
2017-11-22T04:56:51.765Z,99063.05
2017-11-22T04:59:18.223Z,99060.86
2017-11-22T05:01:44.665Z,99057.59
2017-11-22T05:04:11.116Z,99054.80
2017-11-22T05:06:37.556Z,99060.80
2017-11-22T05:09:04.801Z,99067.21
2017-11-22T05:11:31.245Z,99060.55
2017-11-22T05:13:57.681Z,99060.80
2017-11-22T05:16:24.124Z,99071.08
2017-11-22T05:18:50.557Z,99082.32
2017-11-22T05:21:16.986Z,99084.90
2017-11-22T05:23:43.427Z,99081.83
2017-11-22T05:26:10.577Z,99086.64
2017-11-22T05:28:37.005Z,99083.45
2017-11-22T05:31:03.440Z,99093.27
2017-11-22T05:33:29.770Z,99097.39
2017-11-22T05:35:56.209Z,99099.83
2017-11-22T05:38:22.647Z,99100.91
2017-11-22T05:40:49.075Z,99104.41
2017-11-22T05:43:16.328Z,99102.55
2017-11-22T05:45:42.765Z,99105.38
2017-11-22T05:48:09.198Z,99109.25
2017-11-22T05:50:35.641Z,99118.78
2017-11-22T05:53:02.066Z,99111.96
2017-11-22T05:55:28.500Z,99106.36
2017-11-22T05:57:54.937Z,99110.94
2017-11-22T06:00:22.079Z,99116.71
2017-11-22T06:02:48.498Z,99111.61
2017-11-22T06:05:14.956Z,99117.52
2017-11-22T06:07:41.415Z,99121.28
2017-11-22T06:10:07.826Z,99121.15
2017-11-22T06:12:34.261Z,99118.09
2017-11-22T06:15:00.695Z,99116.09
2017-11-22T06:17:27.855Z,99123.22
2017-11-22T06:19:54.294Z,99118.53
2017-11-22T06:22:20.724Z,99120.55
2017-11-22T06:24:47.087Z,99126.58
2017-11-22T06:27:13.576Z,99124.18
2017-11-22T06:29:40.020Z,99129.96
2017-11-22T06:32:06.428Z,99127.30
2017-11-22T06:34:33.333Z,99125.56
2017-11-22T06:36:59.853Z,99127.05
2017-11-22T06:39:26.271Z,99125.84
2017-11-22T06:41:53.225Z,99131.61
2017-11-22T06:44:19.652Z,99130.39
2017-11-22T06:46:46.055Z,99127.88
2017-11-22T06:49:12.529Z,99138.06
2017-11-22T06:51:38.956Z,99138.62
2017-11-22T06:54:05.497Z,99139.82
2017-11-22T06:56:32.338Z,99144.52
2017-11-22T06:58:58.779Z,99141.32
2017-11-22T07:01:25.206Z,99143.60
2017-11-22T07:03:52.061Z,99138.36
2017-11-22T07:06:18.502Z,99136.35
2017-11-22T07:08:44.928Z,99133.02
2017-11-22T07:11:11.769Z,99139.19
2017-11-22T07:13:38.198Z,99146.56
2017-11-22T07:16:04.632Z,99147.09
2017-11-22T07:18:31.382Z,99145.08
2017-11-22T07:20:57.808Z,99144.67
2017-11-22T07:23:24.242Z,99150.44
2017-11-22T07:25:51.403Z,99159.02
2017-11-22T07:28:17.833Z,99151.38
2017-11-22T07:30:44.367Z,99148.95
2017-11-22T07:33:11.007Z,99150.85
2017-11-22T07:35:37.440Z,99148.95
2017-11-22T07:38:03.985Z,99149.89
2017-11-22T07:40:30.719Z,99150.03
2017-11-22T07:42:57.262Z,99154.06
2017-11-22T07:45:23.793Z,99149.89
2017-11-22T07:47:50.751Z,99152.57
2017-11-22T07:50:17.107Z,99153.13
2017-11-22T07:52:43.470Z,99147.87
2017-11-22T07:55:10.116Z,99145.87
2017-11-22T07:57:36.589Z,99142.28
2017-11-22T08:00:03.136Z,99156.36
2017-11-22T08:02:29.739Z,99154.86
2017-11-22T08:04:56.201Z,99158.47
2017-11-22T08:07:22.635Z,99163.56
2017-11-22T08:09:49.582Z,99151.59
2017-11-22T08:12:16.011Z,99162.32
2017-11-22T08:14:42.851Z,99170.36
2017-11-22T08:17:09.699Z,99166.59
2017-11-22T08:19:36.242Z,99168.34
2017-11-22T08:22:02.724Z,99173.43
2017-11-22T08:24:29.828Z,99176.52
2017-11-22T08:26:56.356Z,99178.50
2017-11-22T08:29:22.964Z,99167.59
2017-11-22T08:31:50.047Z,99168.08
2017-11-22T08:34:16.788Z,99172.32
2017-11-22T08:36:43.536Z,99176.72
2017-11-22T08:39:10.548Z,99161.66
2017-11-22T08:41:37.325Z,99166.79
2017-11-22T08:44:03.958Z,99156.25
2017-11-22T08:46:30.910Z,99160.53
2017-11-22T08:48:57.443Z,99157.48
2017-11-22T08:51:23.776Z,99159.44
2017-11-22T08:53:50.620Z,99151.92
2017-11-22T08:56:17.064Z,99151.56
2017-11-22T08:58:43.496Z,99144.14
2017-11-22T09:01:10.438Z,99148.19
2017-11-22T09:03:36.982Z,99141.06
2017-11-22T09:06:03.488Z,99141.34
2017-11-22T09:08:30.566Z,99137.56
2017-11-22T09:10:57.028Z,99137.08
2017-11-22T09:13:23.644Z,99142.33
2017-11-22T09:15:50.766Z,99146.91
2017-11-22T09:18:17.218Z,99141.03
2017-11-22T09:20:43.969Z,99140.83
2017-11-22T09:23:10.496Z,99143.62
2017-11-22T09:25:37.034Z,99138.27
2017-11-22T09:28:03.468Z,99131.22
2017-11-22T09:30:29.939Z,99123.52
2017-11-22T09:32:56.448Z,99128.00
2017-11-22T09:35:22.875Z,99120.89
2017-11-22T09:37:49.521Z,99122.94
2017-11-22T09:40:16.153Z,99124.09
2017-11-22T09:42:42.589Z,99113.13
2017-11-22T09:45:09.031Z,99111.97
2017-11-22T09:47:35.460Z,99110.80
2017-11-22T09:50:02.198Z,99113.69
2017-11-22T09:52:28.642Z,99115.23
2017-11-22T09:54:55.068Z,99106.77
2017-11-22T09:57:21.706Z,99116.52
2017-11-22T09:59:48.253Z,99111.00
2017-11-22T10:02:14.683Z,99115.01
2017-11-22T10:04:41.527Z,99107.05
2017-11-22T10:07:08.073Z,99112.76
2017-11-22T10:09:34.701Z,99114.57
2017-11-22T10:12:01.752Z,99108.05
2017-11-22T10:14:28.186Z,99112.59
2017-11-22T10:16:54.621Z,99114.16
2017-11-22T10:19:21.487Z,99116.14
2017-11-22T10:21:48.520Z,99118.36
2017-11-22T10:24:14.946Z,99114.16
2017-11-22T10:26:41.588Z,99106.99
2017-11-22T10:29:08.236Z,99102.36
2017-11-22T10:31:34.866Z,99099.28
2017-11-22T10:34:01.514Z,99092.61
2017-11-22T10:36:28.049Z,99090.59
2017-11-22T10:38:55.092Z,99080.83
2017-11-22T10:41:21.737Z,99086.01
2017-11-22T10:43:48.277Z,99080.60
2017-11-22T10:46:14.704Z,99079.81
2017-11-22T10:48:41.343Z,99079.11
2017-11-22T10:51:07.775Z,99072.33
2017-11-22T10:53:34.210Z,99068.01
2017-11-22T10:56:00.952Z,99070.45
2017-11-22T10:58:27.660Z,99073.80
2017-11-22T11:00:54.203Z,99073.56
2017-11-22T11:03:21.698Z,99079.77
2017-11-22T11:05:48.314Z,99073.02
2017-11-22T11:08:15.399Z,99070.41
2017-11-22T11:10:42.427Z,99069.69
2017-11-22T11:13:08.972Z,99070.13
2017-11-22T11:15:35.435Z,99067.20
2017-11-22T11:18:02.252Z,99068.91
2017-11-22T11:20:29.128Z,99068.63
2017-11-22T11:22:56.237Z,99066.05
2017-11-22T11:25:22.672Z,99061.67
2017-11-22T11:27:49.628Z,99073.33
2017-11-22T11:30:16.136Z,99067.19
2017-11-22T11:32:42.599Z,99067.35
2017-11-22T11:35:09.947Z,99069.02
2017-11-22T11:37:36.691Z,99065.84
2017-11-22T11:40:03.461Z,99062.94
2017-11-22T11:42:30.684Z,99057.46
2017-11-22T11:44:57.528Z,99057.09
2017-11-22T11:47:24.465Z,99062.00
2017-11-22T11:49:51.533Z,99057.78
2017-11-22T11:52:18.071Z,99056.23
2017-11-22T11:54:44.497Z,99052.62
2017-11-22T11:57:11.350Z,99053.05
2017-11-22T11:59:37.776Z,99056.86
2017-11-22T12:02:04.231Z,99056.94
2017-11-22T12:04:30.951Z,99044.15
2017-11-22T12:06:57.386Z,99045.66
2017-11-22T12:09:23.933Z,99051.98
2017-11-22T12:11:50.868Z,99049.09
2017-11-22T12:14:17.304Z,99040.67
2017-11-22T12:16:43.746Z,99043.61
2017-11-22T12:19:10.275Z,99041.17
2017-11-22T12:21:37.333Z,99032.87
2017-11-22T12:24:04.390Z,99045.79
2017-11-22T12:26:30.808Z,99046.72
2017-11-22T12:28:57.551Z,99052.53
2017-11-22T12:31:23.993Z,99051.14
2017-11-22T12:33:50.726Z,99046.06
2017-11-22T12:36:17.677Z,99052.98
2017-11-22T12:38:44.311Z,99047.01
2017-11-22T12:41:10.852Z,99051.22
2017-11-22T12:43:37.491Z,99059.55
2017-11-22T12:46:03.923Z,99065.31
2017-11-22T12:48:30.471Z,99055.82
2017-11-22T12:50:57.212Z,99048.10
2017-11-22T12:53:24.149Z,99034.82
2017-11-22T12:55:50.583Z,99032.37
2017-11-22T12:58:17.018Z,99036.36
2017-11-22T13:00:43.660Z,99032.28
2017-11-22T13:03:10.297Z,99040.29
2017-11-22T13:05:36.731Z,99046.20
2017-11-22T13:08:03.099Z,99042.52
2017-11-22T13:10:29.609Z,99043.53
2017-11-22T13:12:56.556Z,99034.58
2017-11-22T13:15:22.981Z,99036.66
2017-11-22T13:17:50.049Z,99033.23
2017-11-22T13:20:17.294Z,99034.54
2017-11-22T13:22:43.791Z,99039.36
2017-11-22T13:25:11.040Z,99040.13
2017-11-22T13:27:37.513Z,99032.27
2017-11-22T13:30:04.047Z,99032.78
2017-11-22T13:32:30.490Z,99040.56
2017-11-22T13:34:57.020Z,99033.44
2017-11-22T13:37:23.454Z,99043.97
2017-11-22T13:39:50.000Z,99040.91
2017-11-22T13:42:16.428Z,99036.83
2017-11-22T13:44:43.003Z,99041.48
2017-11-22T13:47:09.398Z,99035.78
2017-11-22T13:49:35.942Z,99044.19
2017-11-22T13:52:02.310Z,99041.28
2017-11-22T13:54:29.217Z,99040.00
2017-11-22T13:56:55.648Z,99043.92
2017-11-22T13:59:22.203Z,99048.53
2017-11-22T14:01:49.242Z,99051.73
2017-11-22T14:04:16.291Z,99036.89
2017-11-22T14:06:42.827Z,99035.92
2017-11-22T14:09:09.766Z,99049.73
2017-11-22T14:11:36.206Z,99036.70
2017-11-22T14:14:02.737Z,99039.47
2017-11-22T14:16:29.692Z,99039.59
2017-11-22T14:18:56.229Z,99042.19
2017-11-22T14:21:22.664Z,99039.69
2017-11-22T14:23:49.510Z,99040.26
2017-11-22T14:26:16.148Z,99039.59
2017-11-22T14:28:42.676Z,99036.47
2017-11-22T14:31:09.630Z,99042.97
2017-11-22T14:33:36.171Z,99047.75
2017-11-22T14:36:02.707Z,99046.11
2017-11-22T14:38:29.449Z,99037.05
2017-11-22T14:40:55.984Z,99048.19
2017-11-22T14:43:22.411Z,99046.31
2017-11-22T14:45:50.288Z,99055.41
2017-11-22T14:48:16.825Z,99061.88
2017-11-22T14:50:43.324Z,99054.22
2017-11-22T14:53:10.197Z,99058.00
2017-11-22T14:55:36.742Z,99062.72
2017-11-22T14:58:03.281Z,99061.00
2017-11-22T15:00:30.117Z,99069.91
2017-11-22T15:02:56.549Z,99072.09
2017-11-22T15:05:23.023Z,99074.70
2017-11-22T15:07:49.727Z,99067.91
2017-11-22T15:10:17.268Z,99078.97
2017-11-22T15:12:43.926Z,99064.66
2017-11-22T15:15:11.189Z,99069.14
2017-11-22T15:17:37.616Z,99074.14
2017-11-22T15:20:04.162Z,99069.05
2017-11-22T15:22:30.594Z,99068.11
2017-11-22T15:24:56.955Z,99066.05
2017-11-22T15:27:23.353Z,99063.16
2017-11-22T15:29:50.001Z,99062.38
2017-11-22T15:32:16.400Z,99068.83
2017-11-22T15:34:42.871Z,99062.13
2017-11-22T15:37:09.308Z,99065.38
2017-11-22T15:39:35.651Z,99075.90
2017-11-22T15:42:02.064Z,99080.20
2017-11-22T15:44:28.683Z,99078.03
2017-11-22T15:46:55.141Z,99079.50
2017-11-22T15:49:21.573Z,99082.33
2017-11-22T15:51:48.211Z,99087.85
2017-11-22T15:54:14.656Z,99084.37
2017-11-22T15:56:41.081Z,99083.70
2017-11-22T15:59:07.518Z,99077.84
2017-11-22T16:01:33.953Z,99080.95
2017-11-22T16:04:00.386Z,99088.53
2017-11-22T16:06:26.825Z,99082.93
2017-11-22T16:08:53.254Z,99085.09
2017-11-22T16:11:19.698Z,99081.09
2017-11-22T16:13:46.132Z,99079.23
2017-11-22T16:16:12.560Z,99084.36
2017-11-22T16:18:38.995Z,99087.48
2017-11-22T16:21:05.430Z,99084.39
2017-11-22T16:23:31.863Z,99091.76
2017-11-22T16:25:58.307Z,99089.61
2017-11-22T16:28:24.736Z,99089.26
2017-11-22T16:30:51.167Z,99092.21
2017-11-22T16:33:17.615Z,99091.97
2017-11-22T16:35:44.148Z,99092.52
2017-11-22T16:38:10.581Z,99090.38
2017-11-22T16:40:36.980Z,99097.20
2017-11-22T16:43:03.442Z,99096.42
2017-11-22T16:45:29.876Z,99098.03
2017-11-22T16:47:56.311Z,99099.64
2017-11-22T16:50:22.742Z,99094.42
2017-11-22T16:52:49.186Z,99101.26
2017-11-22T16:55:15.622Z,99097.14
2017-11-22T16:57:42.166Z,99097.27
2017-11-22T17:00:08.577Z,99104.28
2017-11-22T17:02:34.955Z,99100.02
2017-11-22T17:05:02.173Z,99099.88
2017-11-22T17:07:28.607Z,99101.22
2017-11-22T17:09:54.974Z,99097.88
2017-11-22T17:12:21.409Z,99099.89
2017-11-22T17:14:47.911Z,99100.98
2017-11-22T17:17:14.357Z,99090.23
2017-11-22T17:19:40.794Z,99103.52
2017-11-22T17:22:07.931Z,99106.23
2017-11-22T17:24:34.374Z,99093.09
2017-11-22T17:27:00.801Z,99095.50
2017-11-22T17:29:27.179Z,99097.22
2017-11-22T17:31:53.669Z,99088.10
2017-11-22T17:34:20.113Z,99100.43
2017-11-22T17:36:46.541Z,99103.91
2017-11-22T17:39:13.792Z,99108.63
2017-11-22T17:41:40.228Z,99111.57
2017-11-22T17:44:06.670Z,99113.70
2017-11-22T17:46:33.105Z,99108.36
2017-11-22T17:48:59.540Z,99112.09
2017-11-22T17:51:25.965Z,99106.99
2017-11-22T17:53:52.409Z,99112.50
2017-11-22T17:56:19.551Z,99112.36
2017-11-22T17:58:46.096Z,99114.11
2017-11-22T18:01:12.531Z,99119.21
2017-11-22T18:03:38.965Z,99124.05
2017-11-22T18:06:05.393Z,99126.57
2017-11-22T18:08:31.836Z,99126.72
2017-11-22T18:10:58.257Z,99130.06
2017-11-22T18:13:25.422Z,99132.75
2017-11-22T18:15:51.848Z,99138.92
2017-11-22T18:18:18.385Z,99141.19
2017-11-22T18:20:44.824Z,99138.09
2017-11-22T18:23:11.261Z,99149.48
2017-11-22T18:25:37.588Z,99151.38
2017-11-22T18:28:04.127Z,99147.88
2017-11-22T18:30:31.276Z,99150.81
2017-11-22T18:32:57.605Z,99162.85
2017-11-22T18:35:24.050Z,99158.44
2017-11-22T18:37:50.505Z,99160.55
2017-11-22T18:40:17.021Z,99167.39
2017-11-22T18:42:43.448Z,99170.48
2017-11-22T18:45:09.891Z,99164.17
2017-11-22T18:47:37.135Z,99158.14
2017-11-22T18:50:03.571Z,99149.98
2017-11-22T18:52:30.005Z,99144.10
2017-11-22T18:54:56.440Z,99143.55
2017-11-22T18:57:22.874Z,99146.77
2017-11-22T18:59:49.320Z,99145.80
2017-11-22T19:02:15.974Z,99145.68
2017-11-22T19:04:42.940Z,99151.55
2017-11-22T19:07:09.432Z,99148.63
2017-11-22T19:09:35.875Z,99146.45
2017-11-22T19:12:02.608Z,99145.41
2017-11-22T19:14:29.768Z,99150.19
2017-11-22T19:16:56.966Z,99151.41
2017-11-22T19:19:24.069Z,99144.95
2017-11-22T19:21:51.222Z,99147.22
2017-11-22T19:24:18.367Z,99156.17
2017-11-22T19:26:45.527Z,99152.81
2017-11-22T19:29:12.464Z,99153.06
2017-11-22T19:31:39.315Z,99157.22
2017-11-22T19:34:05.751Z,99162.98
2017-11-22T19:36:32.186Z,99162.58
2017-11-22T19:38:58.611Z,99168.48
2017-11-22T19:41:25.025Z,99165.14
2017-11-22T19:43:51.482Z,99156.72
2017-11-22T19:46:18.495Z,99152.47
2017-11-22T19:48:45.376Z,99155.53
2017-11-22T19:51:12.495Z,99151.24
2017-11-22T19:53:39.583Z,99161.39
2017-11-22T19:56:06.570Z,99166.73
2017-11-22T19:58:33.477Z,99164.72
2017-11-22T20:01:00.321Z,99170.86
2017-11-22T20:03:26.748Z,99169.50
2017-11-22T20:05:53.191Z,99171.36
2017-11-22T20:08:19.617Z,99166.53
2017-11-22T20:10:46.050Z,99165.89
2017-11-22T20:13:13.313Z,99167.11
2017-11-22T20:15:39.738Z,99163.37
2017-11-22T20:18:06.176Z,99163.91
2017-11-22T20:20:32.618Z,99170.34
2017-11-22T20:22:59.052Z,99164.17
2017-11-22T20:25:25.486Z,99172.83
2017-11-22T20:27:51.920Z,99176.47
2017-11-22T20:30:19.064Z,99177.55
2017-11-22T20:32:45.497Z,99186.47
2017-11-22T20:35:11.933Z,99187.91
2017-11-22T20:37:38.370Z,99183.98
2017-11-22T20:40:04.809Z,99185.95
2017-11-22T20:42:31.247Z,99184.70
2017-11-22T20:44:57.672Z,99188.30
2017-11-22T20:47:24.935Z,99181.86
2017-11-22T20:49:51.361Z,99180.91
2017-11-22T20:52:17.796Z,99181.95
2017-11-22T20:54:44.231Z,99181.72
2017-11-22T20:57:10.672Z,99184.63
2017-11-22T20:59:37.100Z,99181.23
2017-11-22T21:02:03.532Z,99184.09
2017-11-22T21:04:30.692Z,99186.59
2017-11-22T21:06:57.127Z,99188.55
2017-11-22T21:09:23.665Z,99192.67
2017-11-22T21:11:50.094Z,99191.06
2017-11-22T21:14:16.525Z,99186.65
2017-11-22T21:16:42.970Z,99197.75
2017-11-22T21:19:09.351Z,99193.18
2017-11-22T21:21:36.545Z,99187.92
2017-11-22T21:24:02.916Z,99192.31
2017-11-22T21:26:29.279Z,99199.88
2017-11-22T21:28:55.747Z,99199.86
2017-11-22T21:31:22.183Z,99205.78
2017-11-22T21:33:48.626Z,99205.22
2017-11-22T21:36:15.052Z,99205.91
2017-11-22T21:38:42.212Z,99194.92
2017-11-22T21:41:08.640Z,99193.31
2017-11-22T21:43:35.073Z,99182.36
2017-11-22T21:46:01.510Z,99187.86
2017-11-22T21:48:28.053Z,99192.59
2017-11-22T21:50:54.505Z,99195.06
2017-11-22T21:53:20.929Z,99199.20
2017-11-22T21:55:48.177Z,99192.47
2017-11-22T21:58:14.612Z,99194.17
2017-11-22T22:00:41.037Z,99204.92
2017-11-22T22:03:07.480Z,99196.05
2017-11-22T22:05:33.907Z,99188.55
2017-11-22T22:08:00.351Z,99195.38
2017-11-22T22:10:26.776Z,99194.71
2017-11-22T22:12:54.033Z,99195.38
2017-11-22T22:15:20.464Z,99195.34
2017-11-22T22:17:46.898Z,99202.63
2017-11-22T22:20:13.332Z,99199.61
2017-11-22T22:22:39.771Z,99194.45
2017-11-22T22:25:06.312Z,99194.19
2017-11-22T22:27:32.853Z,99193.23
2017-11-22T22:29:59.890Z,99189.69
2017-11-22T22:32:26.324Z,99192.11
2017-11-22T22:34:52.759Z,99191.89
2017-11-22T22:37:19.193Z,99190.42
2017-11-22T22:39:45.525Z,99185.08
2017-11-22T22:42:11.961Z,99186.36
2017-11-22T22:44:38.394Z,99195.92
2017-11-22T22:47:05.546Z,99195.05
2017-11-22T22:49:32.064Z,99193.25
2017-11-22T22:51:58.517Z,99194.67
2017-11-22T22:54:24.887Z,99193.80
2017-11-22T22:56:51.215Z,99189.38
2017-11-22T22:59:17.554Z,99189.22
2017-11-22T23:01:43.949Z,99189.50
2017-11-22T23:04:11.099Z,99197.98
2017-11-22T23:06:37.536Z,99195.42
2017-11-22T23:09:03.971Z,99198.98
2017-11-22T23:11:30.404Z,99198.85
2017-11-22T23:13:56.840Z,99196.22
2017-11-22T23:16:23.273Z,99191.75
2017-11-22T23:18:49.708Z,99187.86
2017-11-22T23:21:16.860Z,99196.45
2017-11-22T23:23:43.294Z,99185.70
2017-11-22T23:26:09.729Z,99186.61
2017-11-22T23:28:36.163Z,99186.47
2017-11-22T23:31:02.599Z,99189.55
2017-11-22T23:33:29.033Z,99193.03
2017-11-22T23:35:55.468Z,99194.56
2017-11-22T23:38:22.703Z,99190.63
2017-11-22T23:40:49.157Z,99196.38
2017-11-22T23:43:15.589Z,99194.03
2017-11-22T23:45:42.026Z,99191.81
2017-11-22T23:48:08.467Z,99197.05
2017-11-22T23:50:34.894Z,99196.48
2017-11-22T23:53:01.331Z,99205.44
2017-11-22T23:55:28.480Z,99207.23
2017-11-22T23:57:54.848Z,99215.16
